Time;durP1;ratioP1;P1;durP2;ratioP2;P2;SDS_P1;SDS_P2;PMS_P1;PMS_P2;Temp;Humidity;BMP_temperature;BMP_pressure;BME280_temperature;BME280_humidity;BME280_pressure;Samples;Min_cycle;Max_cycle;Signal;HPM_P1;HPM_P2
2023/01/31 00:02:12;;;;;;;0.63;0.40;;;;;;;12.91;98.05;100613.91;7390208;19;20010;-57
2023/01/31 00:04:38;;;;;;;2.25;0.40;;;;;;;9.72;100.00;100618.56;7391498;19;20028;-57
2023/01/31 00:07:05;;;;;;;5.97;0.52;;;;;;;10.90;100.00;100611.69;7392485;19;20361;-57
2023/01/31 00:09:31;;;;;;;5.03;0.73;;;;;;;23.69;53.54;100585.00;7395713;19;20335;-57
2023/01/31 00:11:57;;;;;;;2.13;0.93;;;;;;;26.26;43.72;100576.44;7392409;19;20014;-57
2023/01/31 00:14:24;;;;;;;0.55;0.40;;;;;;;26.91;40.73;100565.47;7391752;19;20048;-57
2023/01/31 00:16:51;;;;;;;0.10;0.10;;;;;;;27.73;38.67;100555.16;7395087;19;20018;-57
2023/01/31 00:19:18;;;;;;;4.70;0.82;;;;;;;27.84;37.59;100557.59;7396093;19;20021;-57
2023/01/31 00:21:44;;;;;;;1.35;0.55;;;;;;;27.87;36.15;100547.88;7392480;19;20442;-57
2023/01/31 00:24:13;;;;;;;0.88;0.17;;;;;;;26.24;37.81;100549.78;7392196;19;20015;-58
2023/01/31 00:26:40;;;;;;;1.90;0.63;;;;;;;27.30;36.06;100529.72;7389032;19;20533;-57
2023/01/31 00:29:06;;;;;;;0.90;0.63;;;;;;;27.53;35.70;100521.84;7391587;19;20007;-57
2023/01/31 00:31:33;;;;;;;2.10;0.60;;;;;;;27.57;35.27;100520.13;7393113;19;20351;-57
2023/01/31 00:34:00;;;;;;;0.52;0.38;;;;;;;27.39;35.30;100514.84;7394613;19;20003;-57
2023/01/31 00:36:28;;;;;;;0.30;0.30;;;;;;;27.55;34.69;100514.22;7389037;19;20066;-57
2023/01/31 00:38:57;;;;;;;2.70;0.70;;;;;;;27.28;34.62;100509.53;7392764;19;20011;-58
2023/01/31 00:41:26;;;;;;;0.17;0.15;;;;;;;27.15;34.51;100506.88;7392501;19;20015;-58
2023/01/31 00:43:52;;;;;;;1.05;0.10;;;;;;;27.21;34.75;100498.84;7390908;19;20462;-57
2023/01/31 00:46:19;;;;;;;0.28;0.10;;;;;;;26.52;34.89;100494.56;7390614;19;20025;-57
2023/01/31 00:48:45;;;;;;;0.10;0.10;;;;;;;27.79;33.90;100498.44;7390288;19;20010;-57
2023/01/31 00:51:11;;;;;;;1.25;0.40;;;;;;;27.96;33.56;100492.81;7392908;19;20010;-57
2023/01/31 00:53:38;;;;;;;0.15;0.15;;;;;;;16.35;47.78;100503.13;7393642;19;20080;-56
2023/01/31 00:56:07;;;;;;;0.20;0.20;;;;;;;23.07;40.16;100487.31;7391699;19;20321;-55
2023/01/31 00:58:35;;;;;;;1.48;0.65;;;;;;;10.42;97.09;100510.16;7390620;19;20046;-56
2023/01/31 01:01:25;;;;;;;4.68;1.35;;;;;;;8.45;100.00;100503.34;7387949;19;20007;-56
2023/01/31 01:03:58;;;;;;;4.85;1.98;;;;;;;7.78;100.00;100508.16;7389615;19;20015;-55
2023/01/31 01:06:26;;;;;;;1.38;1.27;;;;;;;18.92;86.04;100473.03;7388652;19;20018;-57
2023/01/31 01:08:54;;;;;;;0.28;0.20;;;;;;;24.15;50.59;100468.91;7396330;19;20031;-55
2023/01/31 01:11:26;;;;;;;9.73;0.65;;;;;;;25.22;45.11;100457.69;7398657;19;20070;-62
2023/01/31 01:13:52;;;;;;;7.93;0.47;;;;;;;25.27;43.45;100439.66;7396915;19;20329;-55
2023/01/31 01:16:26;;;;;;;0.38;0.08;;;;;;;25.51;42.55;100454.22;7393114;19;20015;-55
2023/01/31 01:18:53;;;;;;;0.10;0.10;;;;;;;13.32;78.88;100470.41;7392388;19;20434;-55
2023/01/31 01:21:22;;;;;;;0.13;0.13;;;;;;;10.06;100.00;100476.56;7391167;19;20011;-55
2023/01/31 01:23:49;;;;;;;0.20;0.20;;;;;;;11.50;100.00;100466.16;7391579;19;20018;-57
2023/01/31 01:26:26;;;;;;;0.10;0.10;;;;;;;11.39;100.00;100475.00;7393390;19;20035;-55
2023/01/31 01:28:55;;;;;;;0.30;0.13;;;;;;;9.81;100.00;100465.63;7392347;19;20010;-55
2023/01/31 01:31:21;;;;;;;1.83;0.17;;;;;;;10.03;100.00;100465.59;7396293;19;20017;-54
2023/01/31 01:33:48;;;;;;;2.50;0.38;;;;;;;11.66;100.00;100444.28;7397960;19;20022;-55
2023/01/31 01:36:19;;;;;;;0.32;0.10;;;;;;;10.73;100.00;100456.38;7391797;19;20015;-56
2023/01/31 01:38:47;;;;;;;4.13;0.22;;;;;;;10.33;100.00;100457.22;7395722;19;20032;-55
2023/01/31 01:41:13;;;;;;;0.10;0.10;;;;;;;9.70;100.00;100459.69;7397546;19;20066;-55
2023/01/31 01:43:41;;;;;;;0.32;0.32;;;;;;;11.12;100.00;100447.91;7392368;19;20028;-55
2023/01/31 01:46:10;;;;;;;0.10;0.00;;;;;;;10.01;100.00;100446.56;7397126;19;20010;-55
2023/01/31 01:48:37;;;;;;;0.10;0.10;;;;;;;12.87;100.00;100442.78;7392705;19;20219;-55
2023/01/31 01:51:05;;;;;;;1.25;0.77;;;;;;;11.09;100.00;100445.25;7393917;19;20006;-55
2023/01/31 01:53:35;;;;;;;6.22;0.43;;;;;;;10.07;100.00;100444.72;7393844;19;20014;-54
2023/01/31 01:56:08;;;;;;;4.68;0.98;;;;;;;10.99;100.00;100432.56;7394130;19;20019;-55
2023/01/31 01:58:46;;;;;;;0.32;0.22;;;;;;;11.61;100.00;100436.53;7393320;19;20357;-55
2023/01/31 02:01:15;;;;;;;6.43;0.22;;;;;;;14.87;99.61;100430.91;7392440;19;20018;-55
2023/01/31 02:03:47;;;;;;;0.10;0.10;;;;;;;11.04;100.00;100432.75;7393449;19;20015;-55
2023/01/31 02:06:14;;;;;;;0.20;0.20;;;;;;;14.57;98.51;100426.69;7392849;19;20379;-55
2023/01/31 02:08:42;;;;;;;6.55;0.63;;;;;;;12.91;100.00;100437.78;7391546;19;20017;-55
2023/01/31 02:11:30;;;;;;;6.72;0.38;;;;;;;14.99;97.42;100421.34;7392490;19;20017;-55
2023/01/31 02:14:04;;;;;;;0.10;0.00;;;;;;;13.55;100.00;100416.44;7389205;19;20014;-54
2023/01/31 02:16:33;;;;;;;0.10;0.00;;;;;;;10.84;100.00;100403.78;7391769;19;20495;-54
2023/01/31 02:19:00;;;;;;;6.75;0.50;;;;;;;16.89;100.00;100410.41;7397008;19;20041;-55
2023/01/31 02:21:48;;;;;;;0.32;0.32;;;;;;;24.35;60.22;100391.25;7394237;19;20017;-55
2023/01/31 02:25:00;;;;;;;0.63;0.22;;;;;;;13.76;97.50;100413.69;7392279;19;20010;-55
2023/01/31 02:28:04;;;;;;;5.88;0.75;;;;;;;15.98;100.00;100412.41;7389239;19;20011;-55
2023/01/31 02:30:54;;;;;;;1.85;0.40;;;;;;;21.29;73.15;100398.00;7390828;19;20014;-54
2023/01/31 02:33:36;;;;;;;0.43;0.20;;;;;;;25.08;54.05;100388.63;7391009;19;20014;-55
2023/01/31 02:36:14;;;;;;;2.80;0.32;;;;;;;26.33;47.94;100383.56;7391333;19;20022;-55
2023/01/31 02:39:18;;;;;;;0.10;0.10;;;;;;;26.20;45.86;100380.91;7392101;19;20015;-55
2023/01/31 02:42:06;;;;;;;7.75;0.68;;;;;;;26.20;45.09;100386.63;7394597;19;20081;-55
2023/01/31 02:44:58;;;;;;;0.85;0.52;;;;;;;26.54;43.20;100372.66;7391356;19;20023;-55
2023/01/31 02:47:50;;;;;;;1.38;0.30;;;;;;;12.94;96.58;100406.09;7389346;19;20018;-55
2023/01/31 02:50:21;;;;;;;11.30;0.52;;;;;;;11.26;100.00;100405.44;7388727;19;20484;-54
2023/01/31 02:52:51;;;;;;;4.13;0.20;;;;;;;12.37;100.00;100396.22;7395437;19;20015;-54
2023/01/31 02:58:20;;;;;;;0.15;0.15;;;;;;;23.02;63.48;100369.63;7389498;19;20014;-55
2023/01/31 03:00:48;;;;;;;4.50;0.95;;;;;;;24.66;53.05;100370.19;7390251;19;20371;-55
2023/01/31 03:03:23;;;;;;;0.20;0.05;;;;;;;25.89;48.15;100357.28;7392110;19;20018;-55
2023/01/31 03:06:09;;;;;;;7.05;0.60;;;;;;;26.46;45.56;100357.66;7395138;19;20014;-58
2023/01/31 03:08:39;;;;;;;6.70;0.45;;;;;;;26.96;43.48;100355.81;7387908;19;20031;-56
2023/01/31 03:11:08;;;;;;;0.10;0.08;;;;;;;27.05;43.03;100358.78;7388855;19;20010;-55
2023/01/31 03:14:12;;;;;;;1.10;0.28;;;;;;;27.17;42.07;100349.78;7389898;19;20014;-56
2023/01/31 03:17:32;;;;;;;0.28;0.28;;;;;;;27.60;40.54;100357.94;7389590;19;20024;-56
2023/01/31 03:20:08;;;;;;;0.47;0.45;;;;;;;28.01;39.77;100339.31;7392049;19;20416;-56
2023/01/31 03:22:40;;;;;;;0.10;0.10;;;;;;;28.13;38.85;100340.38;7392855;19;20014;-57
2023/01/31 03:25:09;;;;;;;0.80;0.30;;;;;;;28.27;38.57;100328.00;7393237;19;20029;-57
2023/01/31 03:27:40;;;;;;;0.10;0.10;;;;;;;28.41;37.92;100320.56;7387720;19;20470;-57
2023/01/31 03:30:19;;;;;;;2.72;0.55;;;;;;;28.24;37.98;100329.16;7388530;19;20077;-56
2023/01/31 03:32:55;;;;;;;0.10;0.10;;;;;;;14.30;77.84;100343.78;7390898;19;20035;-56
2023/01/31 03:35:26;;;;;;;0.55;0.52;;;;;;;11.48;100.00;100355.06;7393390;19;20014;-56
2023/01/31 03:38:03;;;;;;;16.08;0.30;;;;;;;12.60;100.00;100336.81;7388963;19;20018;-57
2023/01/31 03:40:36;;;;;;;1.90;0.90;;;;;;;12.21;100.00;100338.00;7389445;19;20022;-57
2023/01/31 03:43:27;;;;;;;0.10;0.10;;;;;;;12.29;100.00;100336.41;7390056;19;20048;-56
2023/01/31 03:46:08;;;;;;;3.55;0.98;;;;;;;12.26;100.00;100335.31;7391998;19;20011;-56
2023/01/31 03:48:39;;;;;;;0.20;0.20;;;;;;;11.90;100.00;100329.97;7386108;19;20011;-57
2023/01/31 03:51:11;;;;;;;0.35;0.35;;;;;;;11.45;100.00;100322.53;7390071;19;20011;-55
2023/01/31 03:53:42;;;;;;;0.17;0.17;;;;;;;11.24;100.00;100317.97;7390144;19;20038;-54
2023/01/31 03:56:32;;;;;;;0.10;0.00;;;;;;;11.22;100.00;100317.63;7391551;19;20023;-55
2023/01/31 03:59:08;;;;;;;1.50;0.13;;;;;;;10.68;100.00;100313.69;7388255;19;20074;-54
2023/01/31 04:01:40;;;;;;;1.75;1.05;;;;;;;9.83;100.00;100313.72;7389847;19;20018;-54
2023/01/31 04:04:20;;;;;;;0.20;0.20;;;;;;;11.67;100.00;100300.78;7388624;19;20042;-54
2023/01/31 04:06:47;;;;;;;0.88;0.32;;;;;;;10.12;100.00;100307.00;7387681;19;20443;-54
2023/01/31 04:09:13;;;;;;;0.10;0.10;;;;;;;9.92;100.00;100313.75;7386437;19;20035;-54
2023/01/31 04:11:40;;;;;;;2.92;0.10;;;;;;;10.98;100.00;100300.06;7390892;19;20031;-55
2023/01/31 04:14:08;;;;;;;0.40;0.30;;;;;;;11.96;100.00;100292.56;7388735;19;20530;-57
2023/01/31 04:16:34;;;;;;;0.10;0.00;;;;;;;10.20;100.00;100292.34;7388850;19;20034;-55
2023/01/31 04:19:00;;;;;;;5.18;0.35;;;;;;;9.96;100.00;100293.38;7392941;19;20094;-54
2023/01/31 04:21:26;;;;;;;0.30;0.20;;;;;;;23.18;79.01;100271.09;7390957;19;20502;-54
2023/01/31 04:23:53;;;;;;;0.50;0.50;;;;;;;25.75;58.80;100263.88;7389562;19;20019;-54
2023/01/31 04:26:19;;;;;;;0.30;0.20;;;;;;;26.23;53.62;100266.28;7388039;19;20014;-55
2023/01/31 04:28:45;;;;;;;0.55;0.15;;;;;;;13.33;100.00;100292.16;7389120;19;20042;-54
2023/01/31 04:31:11;;;;;;;1.00;0.65;;;;;;;11.33;100.00;100299.19;7389246;19;20006;-55
2023/01/31 04:33:38;;;;;;;0.52;0.40;;;;;;;19.85;100.00;100280.84;7395604;19;20014;-55
2023/01/31 04:36:04;;;;;;;0.57;0.57;;;;;;;22.90;66.67;100276.66;7394907;19;20066;-55
2023/01/31 04:38:31;;;;;;;0.25;0.20;;;;;;;25.67;56.70;100271.66;7391994;19;20014;-55
2023/01/31 04:40:57;;;;;;;2.08;0.38;;;;;;;26.34;52.55;100270.81;7391503;19;20098;-55
2023/01/31 04:43:23;;;;;;;0.25;0.10;;;;;;;26.49;50.45;100270.78;7388265;19;20078;-54
2023/01/31 04:45:49;;;;;;;1.13;0.70;;;;;;;25.00;50.71;100276.69;7395894;19;20010;-55
2023/01/31 04:48:16;;;;;;;0.00;0.00;;;;;;;25.58;50.43;100266.56;7393100;19;20019;-55
2023/01/31 04:50:42;;;;;;;0.10;0.10;;;;;;;24.96;50.45;100264.91;7396852;19;20010;-55
2023/01/31 04:53:08;;;;;;;2.13;0.57;;;;;;;25.50;49.81;100270.16;7400162;19;20015;-55
2023/01/31 04:55:34;;;;;;;0.10;0.00;;;;;;;24.56;51.99;100269.50;7395901;19;20007;-55
2023/01/31 04:58:01;;;;;;;0.10;0.00;;;;;;;25.60;49.44;100273.19;7395437;19;20487;-55
2023/01/31 05:00:27;;;;;;;0.10;0.00;;;;;;;25.74;49.19;100277.38;7395410;19;20010;-55
2023/01/31 05:02:54;;;;;;;0.30;0.17;;;;;;;26.34;48.23;100270.81;7398669;19;20043;-55
2023/01/31 05:05:20;;;;;;;0.10;0.10;;;;;;;26.79;46.84;100276.38;7398314;19;20014;-55
2023/01/31 05:07:46;;;;;;;0.20;0.20;;;;;;;26.44;47.25;100271.00;7396626;19;20015;-55
2023/01/31 05:10:12;;;;;;;0.32;0.20;;;;;;;27.01;46.04;100269.78;7395088;19;20007;-55
2023/01/31 05:12:39;;;;;;;2.22;0.52;;;;;;;27.26;45.50;100264.13;7398420;19;20457;-55
2023/01/31 05:15:10;;;;;;;0.20;0.10;;;;;;;27.17;45.25;100266.84;7396025;19;20023;-55
2023/01/31 05:17:36;;;;;;;5.13;0.52;;;;;;;27.07;45.17;100274.53;7399359;19;20011;-55
2023/01/31 05:20:03;;;;;;;0.28;0.28;;;;;;;26.87;45.30;100271.41;7394891;19;20030;-55
2023/01/31 05:22:30;;;;;;;0.22;0.22;;;;;;;26.44;46.00;100268.91;7399209;19;20808;-55
2023/01/31 05:24:56;;;;;;;0.22;0.22;;;;;;;27.18;44.72;100274.84;7394304;19;20011;-55
2023/01/31 05:27:22;;;;;;;10.85;0.55;;;;;;;27.48;44.06;100268.19;7392068;19;20436;-55
2023/01/31 05:29:48;;;;;;;0.10;0.00;;;;;;;27.70;43.79;100258.63;7393073;19;20010;-55
2023/01/31 05:32:16;;;;;;;0.20;0.15;;;;;;;27.56;44.41;100274.59;7396516;19;20035;-55
2023/01/31 05:34:42;;;;;;;0.20;0.10;;;;;;;27.96;43.06;100260.88;7394570;19;20034;-55
2023/01/31 05:37:08;;;;;;;0.10;0.00;;;;;;;27.88;42.62;100253.69;7393535;19;20011;-55
2023/01/31 05:39:35;;;;;;;0.35;0.35;;;;;;;27.99;42.46;100274.03;7393892;19;20093;-55
2023/01/31 05:42:01;;;;;;;1.17;0.45;;;;;;;27.98;42.72;100266.78;7394875;19;20039;-55
2023/01/31 05:44:27;;;;;;;0.10;0.10;;;;;;;27.96;42.92;100258.00;7394696;19;20014;-55
2023/01/31 05:46:53;;;;;;;0.00;0.00;;;;;;;27.54;43.67;100257.25;7393123;19;20074;-55
2023/01/31 05:49:20;;;;;;;0.43;0.20;;;;;;;27.98;42.98;100243.88;7394881;19;20657;-55
2023/01/31 05:51:46;;;;;;;0.10;0.10;;;;;;;27.81;42.51;100251.69;7398513;19;20502;-55
2023/01/31 05:54:12;;;;;;;1.05;0.10;;;;;;;27.68;42.88;100255.59;7394330;19;20011;-55
2023/01/31 05:56:38;;;;;;;0.10;0.00;;;;;;;27.56;42.69;100243.13;7392843;19;20027;-55
2023/01/31 05:59:05;;;;;;;0.20;0.10;;;;;;;23.98;46.91;100256.63;7393527;19;20015;-55
2023/01/31 06:01:31;;;;;;;0.32;0.15;;;;;;;14.96;98.73;100265.28;7393696;19;20344;-55
2023/01/31 06:03:57;;;;;;;0.30;0.30;;;;;;;13.61;100.00;100274.56;7393036;19;20010;-55
2023/01/31 06:06:23;;;;;;;0.10;0.00;;;;;;;13.20;100.00;100272.09;7396706;19;20018;-55
2023/01/31 06:08:49;;;;;;;0.10;0.10;;;;;;;24.03;70.22;100244.34;7392511;19;20021;-55
2023/01/31 06:11:17;;;;;;;0.17;0.05;;;;;;;25.35;59.80;100229.44;7392231;19;20082;-55
2023/01/31 06:13:43;;;;;;;0.00;0.00;;;;;;;26.20;54.50;100232.44;7391938;19;20336;-55
2023/01/31 06:16:10;;;;;;;0.10;0.10;;;;;;;27.36;49.72;100247.09;7396141;19;20028;-55
2023/01/31 06:18:36;;;;;;;0.00;0.00;;;;;;;27.05;48.41;100237.94;7391126;19;20048;-55
2023/01/31 06:21:03;;;;;;;0.30;0.30;;;;;;;27.32;47.30;100232.41;7391385;19;20007;-55
2023/01/31 06:23:29;;;;;;;0.00;0.00;;;;;;;27.38;46.94;100228.00;7391963;19;20030;-55
2023/01/31 06:25:55;;;;;;;0.10;0.00;;;;;;;27.02;46.45;100219.09;7392160;19;20015;-55
2023/01/31 06:28:22;;;;;;;0.32;0.20;;;;;;;27.24;46.21;100217.41;7391570;19;20078;-55
2023/01/31 06:30:49;;;;;;;0.65;0.30;;;;;;;26.80;46.52;100226.47;7393763;19;20018;-55
2023/01/31 06:33:15;;;;;;;0.20;0.20;;;;;;;26.10;49.12;100225.78;7391794;19;20021;-55
2023/01/31 06:35:42;;;;;;;0.47;0.30;;;;;;;27.37;46.32;100232.22;7392408;19;20014;-55
2023/01/31 06:38:08;;;;;;;0.10;0.00;;;;;;;27.69;45.19;100235.00;7391513;19;20006;-55
2023/01/31 06:40:35;;;;;;;1.08;0.20;;;;;;;27.70;44.57;100238.59;7391017;19;20030;-55
2023/01/31 06:43:01;;;;;;;0.20;0.10;;;;;;;27.43;44.22;100244.19;7390611;19;20014;-55
2023/01/31 06:45:28;;;;;;;6.03;0.57;;;;;;;27.90;44.10;100236.69;7392816;19;20074;-55
2023/01/31 06:47:54;;;;;;;2.28;0.20;;;;;;;28.21;43.36;100237.91;7389936;19;20014;-55
2023/01/31 06:50:20;;;;;;;0.40;0.40;;;;;;;28.20;43.19;100234.28;7390592;19;20026;-55
2023/01/31 06:52:46;;;;;;;0.45;0.40;;;;;;;28.13;42.66;100232.25;7395409;19;20006;-55
2023/01/31 06:55:12;;;;;;;0.20;0.20;;;;;;;28.01;42.89;100248.44;7389415;19;20530;-55
2023/01/31 06:57:48;;;;;;;1.08;0.17;;;;;;;27.90;42.83;100248.13;7389429;19;20070;-55
2023/01/31 07:00:17;;;;;;;0.10;0.00;;;;;;;27.58;43.12;100240.44;7391005;19;20014;-57
2023/01/31 07:02:44;;;;;;;11.05;0.40;;;;;;;27.67;43.13;100236.91;7394478;19;20014;-58
2023/01/31 07:05:11;;;;;;;2.05;0.80;;;;;;;27.87;42.70;100237.88;7389478;19;20010;-57
2023/01/31 07:07:37;;;;;;;0.10;0.10;;;;;;;27.69;43.33;100237.09;7388277;19;20003;-56
2023/01/31 07:10:03;;;;;;;0.55;0.35;;;;;;;27.82;43.17;100236.78;7391867;19;20014;-56
2023/01/31 07:12:29;;;;;;;0.95;0.70;;;;;;;25.76;44.00;100245.41;7393600;19;20020;-56
2023/01/31 07:14:56;;;;;;;1.45;0.40;;;;;;;27.17;45.90;100226.81;7394010;19;20011;-55
2023/01/31 07:17:22;;;;;;;11.05;0.60;;;;;;;25.25;48.28;100243.47;7390568;19;20048;-55
2023/01/31 07:19:48;;;;;;;0.77;0.60;;;;;;;26.73;45.75;100241.56;7392076;19;20017;-55
2023/01/31 07:22:14;;;;;;;0.38;0.28;;;;;;;20.76;52.61;100247.59;7394324;19;20014;-55
2023/01/31 07:24:40;;;;;;;0.10;0.10;;;;;;;18.94;61.80;100255.94;7390978;19;20395;-55
2023/01/31 07:27:07;;;;;;;0.20;0.20;;;;;;;22.33;55.58;100259.28;7388932;19;20409;-55
2023/01/31 07:29:33;;;;;;;5.78;0.55;;;;;;;26.47;48.51;100255.53;7390658;19;20014;-56
2023/01/31 07:31:59;;;;;;;6.03;0.85;;;;;;;27.22;46.17;100255.19;7392616;19;20012;-55
2023/01/31 07:34:25;;;;;;;0.20;0.20;;;;;;;27.58;45.03;100255.50;7389775;19;20010;-56
2023/01/31 07:36:51;;;;;;;5.05;0.75;;;;;;;26.96;46.03;100262.19;7389875;19;20463;-55
2023/01/31 07:39:18;;;;;;;6.18;1.13;;;;;;;26.34;46.47;100256.53;7389906;19;20432;-55
2023/01/31 07:41:44;;;;;;;11.98;1.90;;;;;;;15.44;95.84;100270.31;7392583;19;20019;-56
2023/01/31 07:44:10;;;;;;;3.15;0.63;;;;;;;25.80;55.45;100257.97;7390009;19;20006;-55
2023/01/31 07:46:36;;;;;;;1.75;0.85;;;;;;;26.85;50.09;100262.66;7390606;19;20018;-55
2023/01/31 07:49:02;;;;;;;2.45;0.43;;;;;;;26.72;49.87;100270.69;7391099;19;20022;-55
2023/01/31 07:51:28;;;;;;;9.45;1.50;;;;;;;25.64;52.50;100269.97;7392244;19;20042;-55
2023/01/31 07:53:55;;;;;;;3.47;1.13;;;;;;;22.58;51.97;100283.28;7395393;19;20074;-55
2023/01/31 07:56:22;;;;;;;5.43;1.17;;;;;;;13.56;100.00;100310.84;7389975;19;20022;-56
2023/01/31 07:58:49;;;;;;;1.70;0.47;;;;;;;11.87;100.00;100317.72;7388947;19;20113;-55
2023/01/31 08:04:07;;;;;;;2.00;0.43;;;;;;;21.30;94.83;100291.88;7390582;19;20369;-55
2023/01/31 08:06:33;;;;;;;2.35;1.02;;;;;;;25.70;63.26;100299.06;7390868;19;20015;-56
2023/01/31 08:09:00;;;;;;;1.17;0.25;;;;;;;26.84;55.83;100298.28;7391290;19;20045;-58
2023/01/31 08:11:27;;;;;;;0.22;0.10;;;;;;;26.79;54.29;100304.97;7394178;19;20014;-56
2023/01/31 08:13:53;;;;;;;11.77;0.63;;;;;;;27.11;52.15;100303.50;7390893;19;20018;-56
2023/01/31 08:16:20;;;;;;;0.77;0.30;;;;;;;26.88;52.00;100318.66;7395715;19;20015;-57
2023/01/31 08:18:47;;;;;;;0.30;0.30;;;;;;;27.36;49.80;100332.91;7392562;19;20480;-58
2023/01/31 08:21:15;;;;;;;0.85;0.20;;;;;;;27.60;48.65;100337.91;7401657;19;21356;-57
2023/01/31 08:23:42;;;;;;;0.10;0.00;;;;;;;28.03;48.00;100328.78;7397326;19;20375;-57
2023/01/31 08:26:19;;;;;;;0.25;0.17;;;;;;;27.01;47.85;100337.66;7398549;19;20024;-57
2023/01/31 08:28:47;;;;;;;0.90;0.45;;;;;;;26.73;48.06;100329.38;7394074;19;20178;-59
2023/01/31 08:31:16;;;;;;;2.63;0.40;;;;;;;26.09;47.56;100324.19;7399700;19;20011;-60
2023/01/31 08:33:43;;;;;;;3.70;1.23;;;;;;;20.02;56.35;100347.25;7397382;19;20011;-59
2023/01/31 08:36:10;;;;;;;6.40;0.60;;;;;;;22.22;72.08;100338.97;7395184;19;20548;-60
2023/01/31 08:38:37;;;;;;;1.55;0.47;;;;;;;25.49;55.72;100351.34;7397000;19;20457;-60
2023/01/31 08:41:03;;;;;;;0.22;0.22;;;;;;;25.82;52.07;100351.56;7398212;19;20011;-59
2023/01/31 08:43:29;;;;;;;3.40;1.00;;;;;;;26.50;49.99;100349.44;7396449;19;20111;-60
2023/01/31 08:45:56;;;;;;;0.38;0.38;;;;;;;26.47;49.01;100350.59;7399863;19;20351;-59
2023/01/31 08:48:22;;;;;;;0.63;0.63;;;;;;;25.91;49.67;100353.84;7394262;19;20478;-59
2023/01/31 08:50:48;;;;;;;0.10;0.10;;;;;;;26.66;47.87;100345.19;7396284;19;20014;-60
2023/01/31 08:53:14;;;;;;;0.60;0.57;;;;;;;26.73;46.56;100346.53;7398934;19;20457;-58
2023/01/31 08:55:40;;;;;;;1.65;0.95;;;;;;;26.79;46.62;100349.97;7401503;19;20018;-59
2023/01/31 08:58:07;;;;;;;0.40;0.35;;;;;;;26.26;46.39;100344.34;7397159;19;20052;-58
2023/01/31 09:00:33;;;;;;;0.32;0.32;;;;;;;20.64;72.67;100362.25;7399901;19;20030;-58
2023/01/31 09:02:59;;;;;;;2.03;1.05;;;;;;;25.92;51.54;100355.38;7400272;19;20010;-59
2023/01/31 09:05:28;;;;;;;1.15;0.28;;;;;;;26.80;47.65;100363.66;7400984;19;20039;-58
2023/01/31 09:07:54;;;;;;;1.17;0.47;;;;;;;27.09;45.54;100367.00;7392680;19;20026;-58
2023/01/31 09:10:21;;;;;;;4.38;0.45;;;;;;;27.13;44.82;100372.28;7395475;19;20022;-59
2023/01/31 09:12:47;;;;;;;4.38;0.93;;;;;;;26.75;44.10;100383.88;7400911;19;20084;-58
2023/01/31 09:15:14;;;;;;;4.85;0.30;;;;;;;26.66;43.52;100375.88;7398073;19;20062;-56
2023/01/31 09:17:41;;;;;;;0.47;0.30;;;;;;;26.73;42.70;100375.88;7395876;19;20032;-58
2023/01/31 09:20:09;;;;;;;0.82;0.38;;;;;;;26.62;42.58;100387.69;7395839;19;20459;-58
2023/01/31 09:22:35;;;;;;;0.75;0.65;;;;;;;26.69;41.84;100386.91;7399156;19;20077;-58
2023/01/31 09:25:02;;;;;;;3.03;0.52;;;;;;;26.33;41.72;100382.78;7394103;19;20487;-58
2023/01/31 09:27:29;;;;;;;0.25;0.25;;;;;;;25.73;42.38;100392.09;7393889;19;20187;-58
2023/01/31 09:29:55;;;;;;;0.22;0.20;;;;;;;26.60;40.80;100390.38;7394659;19;20015;-58
2023/01/31 09:32:21;;;;;;;3.83;0.63;;;;;;;26.45;40.85;100378.19;7397857;19;20074;-58
2023/01/31 09:34:48;;;;;;;0.75;0.68;;;;;;;26.66;40.47;100393.78;7395462;19;20010;-57
2023/01/31 09:37:15;;;;;;;0.10;0.10;;;;;;;26.97;40.19;100392.38;7398283;19;20011;-58
2023/01/31 09:39:42;;;;;;;9.63;1.67;;;;;;;27.22;39.46;100391.72;7398892;19;20111;-58
2023/01/31 09:42:30;;;;;;;12.27;1.52;;;;;;;22.91;42.44;100406.03;7398259;19;20052;-57
2023/01/31 09:45:01;;;;;;;0.35;0.35;;;;;;;26.41;42.82;100394.97;7395603;19;20062;-57
2023/01/31 09:47:37;;;;;;;0.68;0.17;;;;;;;27.32;39.03;100389.75;7392869;19;20007;-58
2023/01/31 09:50:11;;;;;;;3.38;0.57;;;;;;;27.32;38.56;100399.09;7393629;19;20011;-57
2023/01/31 09:52:38;;;;;;;0.70;0.52;;;;;;;27.72;37.57;100399.09;7395259;19;20018;-57
2023/01/31 09:55:07;;;;;;;1.38;0.73;;;;;;;27.73;37.74;100395.63;7390544;19;20011;-57
2023/01/31 09:57:47;;;;;;;0.60;0.60;;;;;;;23.48;40.03;100413.56;7392175;19;20007;-58
2023/01/31 10:00:59;;;;;;;0.63;0.55;;;;;;;26.77;38.49;100404.81;7393731;19;20555;-57
2023/01/31 10:03:52;;;;;;;0.10;0.10;;;;;;;27.05;37.57;100401.69;7390826;19;20018;-57
2023/01/31 10:06:23;;;;;;;1.55;0.47;;;;;;;27.33;37.07;100405.56;7392274;19;20030;-57
2023/01/31 10:09:02;;;;;;;3.05;0.75;;;;;;;27.33;36.88;100399.84;7394693;19;20352;-57
2023/01/31 10:11:33;;;;;;;0.15;0.00;;;;;;;27.48;36.43;100414.09;7394762;19;20078;-57
2023/01/31 10:14:18;;;;;;;1.17;0.20;;;;;;;27.59;36.06;100410.81;7392588;19;20014;-57
2023/01/31 10:16:57;;;;;;;0.15;0.15;;;;;;;27.81;35.62;100418.47;7393066;19;20022;-57
2023/01/31 10:19:42;;;;;;;0.68;0.40;;;;;;;27.97;35.42;100419.13;7393337;19;20007;-57
2023/01/31 10:22:16;;;;;;;0.77;0.57;;;;;;;23.74;39.94;100424.84;7395646;19;20021;-57
2023/01/31 10:24:48;;;;;;;5.88;0.85;;;;;;;27.59;36.28;100427.97;7395085;19;20036;-57
2023/01/31 10:27:39;;;;;;;0.17;0.17;;;;;;;28.34;35.34;100443.88;7392810;19;20015;-58
2023/01/31 10:30:15;;;;;;;3.20;0.85;;;;;;;26.20;36.43;100469.44;7391422;19;20014;-57
2023/01/31 10:32:47;;;;;;;0.10;0.10;;;;;;;26.56;38.91;100463.50;7396431;19;20010;-58
2023/01/31 10:35:35;;;;;;;0.70;0.70;;;;;;;28.39;36.05;100460.06;7393297;19;20051;-58
2023/01/31 10:38:28;;;;;;;1.45;0.45;;;;;;;26.77;37.36;100467.69;7393303;19;20010;-58
2023/01/31 10:41:04;;;;;;;0.30;0.15;;;;;;;29.15;35.70;100471.56;7393935;19;20010;-57
2023/01/31 10:43:42;;;;;;;0.38;0.38;;;;;;;27.08;37.61;100476.22;7391576;19;20021;-57
2023/01/31 10:46:13;;;;;;;0.40;0.13;;;;;;;29.11;35.75;100465.47;7392447;19;20025;-57
2023/01/31 10:48:43;;;;;;;0.20;0.20;;;;;;;29.49;35.57;100471.56;7391181;19;20015;-57
2023/01/31 10:51:27;;;;;;;5.43;2.22;;;;;;;29.86;35.29;100469.53;7393949;19;19998;-57
2023/01/31 10:54:02;;;;;;;1.73;0.68;;;;;;;19.05;47.72;100481.72;7397603;19;20467;-57
2023/01/31 10:56:32;;;;;;;8.60;0.50;;;;;;;13.27;97.01;100476.69;7392645;19;20019;-57
2023/01/31 10:59:01;;;;;;;12.00;0.60;;;;;;;12.81;100.00;100481.03;7390632;19;20031;-57
2023/01/31 11:01:28;;;;;;;1.67;0.73;;;;;;;14.58;100.00;100478.69;7393540;19;20589;-57
2023/01/31 11:03:56;;;;;;;3.78;0.65;;;;;;;13.51;100.00;100459.84;7393227;19;20042;-57
2023/01/31 11:06:23;;;;;;;1.05;0.77;;;;;;;14.66;98.54;100468.59;7392498;19;20021;-57
2023/01/31 11:08:58;;;;;;;3.92;1.00;;;;;;;11.51;100.00;100488.00;7390757;19;20142;-57
2023/01/31 11:11:26;;;;;;;1.55;0.75;;;;;;;11.08;100.00;100483.53;7393964;19;20017;-57
2023/01/31 11:14:04;;;;;;;4.78;1.38;;;;;;;12.26;100.00;100479.78;7392884;19;20015;-57
2023/01/31 11:16:36;;;;;;;2.30;0.93;;;;;;;12.28;100.00;100477.28;7391809;19;20021;-57
2023/01/31 11:19:16;;;;;;;12.18;1.42;;;;;;;13.03;100.00;100473.13;7391596;19;20078;-57
2023/01/31 11:21:48;;;;;;;5.40;1.50;;;;;;;13.23;100.00;100492.84;7393161;19;20018;-56
2023/01/31 11:24:19;;;;;;;4.45;1.20;;;;;;;12.52;100.00;100497.63;7396188;19;20017;-57
2023/01/31 11:27:03;;;;;;;;;;;;;;;12.70;100.00;100501.13;7392940;19;20026;-58
2023/01/31 11:29:34;;;;;;;10.05;1.75;;;;;;;13.38;100.00;100490.13;7391546;19;19943;-57
2023/01/31 11:32:10;;;;;;;2.03;1.00;;;;;;;13.04;100.00;100494.22;7390746;19;20436;-57
2023/01/31 11:34:36;;;;;;;8.05;1.60;;;;;;;13.40;100.00;100494.00;7388482;19;20082;-56
2023/01/31 11:37:05;;;;;;;3.35;2.05;;;;;;;13.75;100.00;100496.16;7389093;19;20006;-56
2023/01/31 11:39:38;;;;;;;3.25;0.80;;;;;;;12.51;100.00;100493.31;7390138;19;20764;-56
2023/01/31 11:42:13;;;;;;;0.90;0.90;;;;;;;13.30;100.00;100505.72;7394292;19;20007;-56
2023/01/31 11:45:15;;;;;;;1.13;0.65;;;;;;;13.85;99.69;100511.59;7391667;19;20419;-57
2023/01/31 11:48:00;;;;;;;;;;;;;;;14.01;98.27;100494.31;7389987;19;20641;-56